Bradley, California
Current Conditions -  °F | °C
As of 12:27 PM on Monday 22 Dec 2014 (Local Time) from KPRB Reporting Station
Scattered Clouds Scattered Clouds  
Wind Chill: 60°   Ceiling: Unl
Heat Index: 60°   Visibility: 10mi
Dew Point: 55°   Wind: 5mph
Humidity: 83%   Direction: 310°NW
Pressure: 30.18"   Gusts: NA
Location:  35.86°N, 120.8°W
Report Text: KPRB 222027Z AUTO 31004KT 10SM SCT006 16/13 A3018 RMK AO2 T01560128 TSNO
Loading
Personal Weather Stations






























Interactive Weather Map New forecast layout! Learn more

10-Day Weather Forecast

Advertisements
Track Severe Weather on mobile